ANA171 RJTT-RJCC
Flight info
| Callsign | ANA171 |
|---|---|
| Flight time | N/A |
| Altitude | 39000 |
| Route | AGRIS Y11 SAMBO Y119 OHMAR Y13 SIRAO Y139 NAVER |
| Aircraft | B772/H-SDE2E3FGHIJ5LORVWXY/LB1D1 |
Departure
| Time | N/A |
|---|---|
| Airport | Tokyo Haneda International Airport (RJTT) |
Arrival
| Time | 2026-04-30 18:39 |
|---|---|
| Airport | New Chitose Airport (RJCC) |
| Time | Latitude | Longitude | Altitude | Speed | Heading |
|---|---|---|---|---|---|
| 2026-04-30 17:39 | 40.46282 | 140.95931 | 39094 ft | 496 kts | 345° |
| 2026-04-30 17:42 | 40.80692 | 140.97136 | 38399 ft | 488 kts | 345° |
| 2026-04-30 17:42 | 40.90703 | 140.97481 | 37184 ft | 471 kts | 346° |
| 2026-04-30 17:43 | 40.97149 | 140.97694 | 36445 ft | 461 kts | 346° |
| 2026-04-30 17:44 | 41.06609 | 140.98001 | 35360 ft | 449 kts | 347° |
| 2026-04-30 17:44 | 41.15877 | 140.98301 | 34216 ft | 440 kts | 348° |
| 2026-04-30 17:46 | 41.30980 | 140.99285 | 32240 ft | 438 kts | 0° |
| 2026-04-30 17:47 | 41.42491 | 141.04468 | 30875 ft | 438 kts | 12° |
| 2026-04-30 17:48 | 41.53771 | 141.10038 | 29395 ft | 427 kts | 13° |
| 2026-04-30 17:48 | 41.61129 | 141.13689 | 28367 ft | 419 kts | 13° |
| 2026-04-30 17:49 | 41.72805 | 141.19511 | 26746 ft | 409 kts | 14° |
| 2026-04-30 17:50 | 41.82503 | 141.24412 | 25431 ft | 402 kts | 15° |
| 2026-04-30 17:51 | 41.90267 | 141.28345 | 24360 ft | 397 kts | 16° |
| 2026-04-30 17:52 | 41.97773 | 141.33205 | 22796 ft | 410 kts | 33° |
| 2026-04-30 17:53 | 42.07636 | 141.45732 | 20497 ft | 372 kts | 42° |
| 2026-04-30 17:54 | 42.15584 | 141.54805 | 19082 ft | 378 kts | 27° |
| 2026-04-30 17:55 | 42.24994 | 141.61514 | 17429 ft | 379 kts | 27° |
| 2026-04-30 17:56 | 42.33427 | 141.67770 | 15986 ft | 339 kts | 28° |
| 2026-04-30 17:57 | 42.39731 | 141.72482 | 14877 ft | 352 kts | 28° |
| 2026-04-30 17:58 | 42.46273 | 141.77386 | 13654 ft | 365 kts | 28° |
| 2026-04-30 17:59 | 42.54828 | 141.83822 | 11951 ft | 313 kts | 28° |
| 2026-04-30 18:00 | 42.62973 | 141.86466 | 10658 ft | 311 kts | 353° |
| 2026-04-30 18:00 | 42.69314 | 141.85795 | 9645 ft | 284 kts | 354° |
| 2026-04-30 18:01 | 42.73175 | 141.85410 | 9039 ft | 287 kts | 354° |
| 2026-04-30 18:02 | 42.79231 | 141.84822 | 8084 ft | 290 kts | 354° |
| 2026-04-30 18:02 | 42.85135 | 141.83755 | 7142 ft | 282 kts | 343° |
| 2026-04-30 18:03 | 42.90829 | 141.81824 | 6245 ft | 279 kts | 344° |
| 2026-04-30 18:04 | 42.96238 | 141.80086 | 5364 ft | 266 kts | 343° |
| 2026-04-30 18:05 | 43.02592 | 141.76321 | 4263 ft | 237 kts | 315° |
| 2026-04-30 18:06 | 43.02526 | 141.69127 | 3498 ft | 203 kts | 229° |
| 2026-04-30 18:07 | 42.98367 | 141.65293 | 2798 ft | 184 kts | 179° |
| 2026-04-30 18:08 | 42.94658 | 141.65873 | 2254 ft | 178 kts | 172° |
| 2026-04-30 18:09 | 42.90067 | 141.66720 | 2029 ft | 165 kts | 173° |
| 2026-04-30 18:10 | 42.85686 | 141.67529 | 1443 ft | 145 kts | 173° |
| 2026-04-30 18:11 | 42.81439 | 141.68310 | 580 ft | 147 kts | 173° |
| 2026-04-30 18:11 | 42.78077 | 141.68947 | 97 ft | 164 kts | 173° |
| 2026-04-30 18:12 | 42.74594 | 141.69660 | 850 ft | 168 kts | 170° |
| 2026-04-30 18:13 | 42.72290 | 141.70216 | 1077 ft | 168 kts | 171° |
| 2026-04-30 18:13 | 42.69187 | 141.70641 | 1844 ft | 178 kts | 174° |
| 2026-04-30 18:14 | 42.66295 | 141.71365 | 2213 ft | 198 kts | 142° |
| 2026-04-30 18:15 | 42.65080 | 141.77441 | 2417 ft | 250 kts | 112° |
| 2026-04-30 18:15 | 42.62664 | 141.83597 | 4917 ft | 233 kts | 128° |
| 2026-04-30 18:16 | 42.60741 | 141.87077 | 5011 ft | 227 kts | 132° |
| 2026-04-30 18:16 | 42.58754 | 141.90356 | 5014 ft | 222 kts | 134° |
| 2026-04-30 18:17 | 42.57751 | 141.91966 | 5015 ft | 224 kts | 134° |
| 2026-04-30 18:17 | 42.56755 | 141.93552 | 5022 ft | 224 kts | 134° |
| 2026-04-30 18:17 | 42.54764 | 141.96815 | 5012 ft | 225 kts | 131° |
| 2026-04-30 18:18 | 42.53805 | 141.98496 | 5020 ft | 225 kts | 131° |
| 2026-04-30 18:18 | 42.52882 | 142.00113 | 5021 ft | 226 kts | 132° |
| 2026-04-30 18:18 | 42.51918 | 142.01790 | 5030 ft | 225 kts | 132° |
| 2026-04-30 18:18 | 42.50956 | 142.03459 | 5035 ft | 225 kts | 132° |
| 2026-04-30 18:19 | 42.50007 | 142.05143 | 5025 ft | 223 kts | 125° |
| 2026-04-30 18:19 | 42.49547 | 142.07153 | 5029 ft | 229 kts | 92° |
| 2026-04-30 18:19 | 42.49924 | 142.09246 | 5038 ft | 234 kts | 60° |
| 2026-04-30 18:19 | 42.51046 | 142.10820 | 5033 ft | 235 kts | 27° |
| 2026-04-30 18:20 | 42.52601 | 142.11350 | 5033 ft | 231 kts | 353° |
| 2026-04-30 18:20 | 42.54082 | 142.10680 | 5041 ft | 224 kts | 320° |
| 2026-04-30 18:20 | 42.55067 | 142.09112 | 5036 ft | 218 kts | 292° |
| 2026-04-30 18:20 | 42.55465 | 142.07164 | 5041 ft | 215 kts | 271° |
| 2026-04-30 18:21 | 42.55500 | 142.05165 | 5025 ft | 214 kts | 267° |
| 2026-04-30 18:21 | 42.55493 | 142.03153 | 5032 ft | 214 kts | 267° |
| 2026-04-30 18:21 | 42.55492 | 142.01135 | 5018 ft | 213 kts | 267° |
| 2026-04-30 18:21 | 42.55495 | 141.99133 | 5018 ft | 212 kts | 267° |
| 2026-04-30 18:22 | 42.55502 | 141.97139 | 5021 ft | 210 kts | 268° |
| 2026-04-30 18:22 | 42.54957 | 141.93424 | 5029 ft | 204 kts | 232° |
| 2026-04-30 18:22 | 42.53892 | 141.92057 | 5048 ft | 228 kts | 219° |
| 2026-04-30 18:23 | 42.52859 | 141.90293 | 5015 ft | 249 kts | 249° |
| 2026-04-30 18:23 | 42.52804 | 141.88031 | 5002 ft | 240 kts | 287° |
| 2026-04-30 18:23 | 42.53776 | 141.86246 | 5014 ft | 241 kts | 320° |
| 2026-04-30 18:23 | 42.55301 | 141.85306 | 5022 ft | 245 kts | 345° |
| 2026-04-30 18:24 | 42.58562 | 141.86311 | 5010 ft | 246 kts | 32° |
| 2026-04-30 18:24 | 42.60162 | 141.87104 | 5016 ft | 250 kts | 359° |
| 2026-04-30 18:24 | 42.61882 | 141.86925 | 5037 ft | 250 kts | 350° |
| 2026-04-30 18:25 | 42.63623 | 141.86688 | 5011 ft | 251 kts | 352° |
| 2026-04-30 18:25 | 42.67087 | 141.86291 | 5019 ft | 249 kts | 352° |
| 2026-04-30 18:25 | 42.68813 | 141.86092 | 5001 ft | 248 kts | 352° |
| 2026-04-30 18:26 | 42.72232 | 141.85692 | 5005 ft | 246 kts | 352° |
| 2026-04-30 18:26 | 42.73930 | 141.85497 | 5005 ft | 243 kts | 351° |
| 2026-04-30 18:26 | 42.75583 | 141.85274 | 4993 ft | 241 kts | 352° |
| 2026-04-30 18:27 | 42.78918 | 141.84906 | 4997 ft | 241 kts | 352° |
| 2026-04-30 18:27 | 42.80608 | 141.84710 | 5006 ft | 245 kts | 352° |
| 2026-04-30 18:28 | 42.83968 | 141.84068 | 5001 ft | 243 kts | 343° |
| 2026-04-30 18:28 | 42.85614 | 141.83530 | 5003 ft | 243 kts | 343° |
| 2026-04-30 18:28 | 42.88904 | 141.82435 | 5011 ft | 242 kts | 343° |
| 2026-04-30 18:29 | 42.90542 | 141.81906 | 5035 ft | 242 kts | 343° |
| 2026-04-30 18:29 | 42.95414 | 141.80348 | 5015 ft | 239 kts | 343° |
| 2026-04-30 18:30 | 42.98078 | 141.79504 | 5008 ft | 232 kts | 342° |
| 2026-04-30 18:30 | 43.01427 | 141.77667 | 4752 ft | 221 kts | 315° |
| 2026-04-30 18:31 | 43.02597 | 141.76315 | 4537 ft | 219 kts | 316° |
| 2026-04-30 18:31 | 43.03981 | 141.73074 | 4087 ft | 197 kts | 263° |
| 2026-04-30 18:32 | 43.02844 | 141.69649 | 3665 ft | 204 kts | 229° |
| 2026-04-30 18:32 | 43.01950 | 141.68175 | 3462 ft | 204 kts | 228° |
| 2026-04-30 18:32 | 42.99931 | 141.65697 | 3012 ft | 188 kts | 192° |
| 2026-04-30 18:33 | 42.98681 | 141.65607 | 2838 ft | 177 kts | 180° |
| 2026-04-30 18:33 | 42.96357 | 141.65652 | 2475 ft | 154 kts | 175° |
| 2026-04-30 18:33 | 42.95329 | 141.65782 | 2306 ft | 142 kts | 173° |
| 2026-04-30 18:34 | 42.94358 | 141.65939 | 2164 ft | 138 kts | 172° |
| 2026-04-30 18:34 | 42.92503 | 141.66272 | 2041 ft | 138 kts | 174° |
| 2026-04-30 18:34 | 42.91547 | 141.66446 | 2006 ft | 138 kts | 173° |
| 2026-04-30 18:35 | 42.90913 | 141.66564 | 2017 ft | 141 kts | 173° |
| 2026-04-30 18:35 | 42.89598 | 141.66807 | 2014 ft | 143 kts | 173° |
| 2026-04-30 18:35 | 42.88950 | 141.66925 | 1996 ft | 141 kts | 173° |
| 2026-04-30 18:36 | 42.86729 | 141.67336 | 1700 ft | 128 kts | 173° |
| 2026-04-30 18:36 | 42.86154 | 141.67443 | 1599 ft | 120 kts | 173° |
| 2026-04-30 18:36 | 42.84255 | 141.67792 | 1202 ft | 121 kts | 172° |
| 2026-04-30 18:37 | 42.83704 | 141.67893 | 1101 ft | 121 kts | 171° |
| 2026-04-30 18:37 | 42.82856 | 141.68049 | 921 ft | 124 kts | 172° |
| 2026-04-30 18:37 | 42.81987 | 141.68210 | 730 ft | 127 kts | 172° |
| 2026-04-30 18:37 | 42.81100 | 141.68373 | 588 ft | 131 kts | 172° |
| 2026-04-30 18:38 | 42.80193 | 141.68541 | 393 ft | 130 kts | 173° |
| 2026-04-30 18:38 | 42.79302 | 141.68706 | 236 ft | 129 kts | 173° |
| 2026-04-30 18:38 | 42.78413 | 141.68886 | 116 ft | 130 kts | 173° |
| 2026-04-30 18:38 | 42.77574 | 141.69033 | 84 ft | 104 kts | 173° |
| 2026-04-30 18:39 | 42.77047 | 141.69125 | 86 ft | 51 kts | 173° |
| 2026-04-30 18:39 | 42.76796 | 141.69100 | 65 ft | 39 kts | 197° |
| 2026-04-30 18:39 | 42.76701 | 141.68991 | 67 ft | 9 kts | 290° |
| 2026-04-30 18:39 | 42.76774 | 141.68950 | 70 ft | 16 kts | 351° |
| 2026-04-30 18:40 | 42.76901 | 141.68926 | 73 ft | 19 kts | 352° |
| 2026-04-30 18:40 | 42.77033 | 141.68902 | 83 ft | 19 kts | 352° |
| 2026-04-30 18:40 | 42.77163 | 141.68878 | 84 ft | 19 kts | 352° |
| 2026-04-30 18:40 | 42.77294 | 141.68856 | 87 ft | 19 kts | 353° |
| 2026-04-30 18:41 | 42.77427 | 141.68833 | 85 ft | 19 kts | 352° |
| 2026-04-30 18:41 | 42.77559 | 141.68810 | 86 ft | 19 kts | 353° |
| 2026-04-30 18:41 | 42.77691 | 141.68787 | 89 ft | 19 kts | 353° |
| 2026-04-30 18:41 | 42.77822 | 141.68763 | 89 ft | 19 kts | 352° |
| 2026-04-30 18:42 | 42.77955 | 141.68741 | 90 ft | 19 kts | 354° |
| 2026-04-30 18:42 | 42.78216 | 141.68695 | 91 ft | 19 kts | 352° |
| 2026-04-30 18:42 | 42.78348 | 141.68670 | 90 ft | 19 kts | 349° |
| 2026-04-30 18:45 | 42.78674 | 141.68264 | 93 ft | 0 kts | 284° |